sensor_id;sensor_type;location;lat;lon;timestamp;P1;durP1;ratioP1;P2;durP2;ratioP2
1106;SDS011;540;49.448;8.612;2022-08-16T00:02:29;4.13;;;2.92;;
1106;SDS011;540;49.448;8.612;2022-08-16T00:04:58;4.80;;;2.83;;
1106;SDS011;540;49.448;8.612;2022-08-16T00:07:27;5.07;;;2.70;;
1106;SDS011;540;49.448;8.612;2022-08-16T00:09:55;6.68;;;3.45;;
1106;SDS011;540;49.448;8.612;2022-08-16T00:12:24;5.60;;;3.30;;
1106;SDS011;540;49.448;8.612;2022-08-16T00:14:52;4.93;;;2.97;;
1106;SDS011;540;49.448;8.612;2022-08-16T00:17:22;5.72;;;3.08;;
1106;SDS011;540;49.448;8.612;2022-08-16T00:19:50;6.18;;;3.33;;
1106;SDS011;540;49.448;8.612;2022-08-16T00:22:20;3.88;;;2.85;;
1106;SDS011;540;49.448;8.612;2022-08-16T00:24:51;4.10;;;3.40;;
1106;SDS011;540;49.448;8.612;2022-08-16T00:27:20;4.13;;;3.28;;
1106;SDS011;540;49.448;8.612;2022-08-16T00:29:48;3.85;;;2.75;;
1106;SDS011;540;49.448;8.612;2022-08-16T00:32:37;5.25;;;3.00;;
1106;SDS011;540;49.448;8.612;2022-08-16T00:35:06;3.40;;;2.78;;
1106;SDS011;540;49.448;8.612;2022-08-16T00:37:40;6.18;;;3.20;;
1106;SDS011;540;49.448;8.612;2022-08-16T00:40:26;6.10;;;3.33;;
1106;SDS011;540;49.448;8.612;2022-08-16T00:43:09;4.05;;;2.90;;
1106;SDS011;540;49.448;8.612;2022-08-16T00:45:47;5.00;;;2.80;;
1106;SDS011;540;49.448;8.612;2022-08-16T00:48:26;4.60;;;2.88;;
1106;SDS011;540;49.448;8.612;2022-08-16T00:50:57;3.97;;;3.13;;
1106;SDS011;540;49.448;8.612;2022-08-16T00:53:25;4.57;;;3.03;;
1106;SDS011;540;49.448;8.612;2022-08-16T00:55:58;3.67;;;2.90;;
1106;SDS011;540;49.448;8.612;2022-08-16T00:58:31;15.88;;;4.13;;
1106;SDS011;540;49.448;8.612;2022-08-16T01:01:01;4.70;;;3.17;;
1106;SDS011;540;49.448;8.612;2022-08-16T01:03:34;7.15;;;3.95;;
1106;SDS011;540;49.448;8.612;2022-08-16T01:06:07;4.47;;;3.53;;
1106;SDS011;540;49.448;8.612;2022-08-16T01:08:57;5.15;;;3.40;;
1106;SDS011;540;49.448;8.612;2022-08-16T01:11:27;5.57;;;3.25;;
1106;SDS011;540;49.448;8.612;2022-08-16T01:13:55;5.40;;;3.08;;
1106;SDS011;540;49.448;8.612;2022-08-16T01:16:28;5.22;;;3.10;;
1106;SDS011;540;49.448;8.612;2022-08-16T01:18:57;5.57;;;3.55;;
1106;SDS011;540;49.448;8.612;2022-08-16T01:21:30;4.53;;;3.42;;
1106;SDS011;540;49.448;8.612;2022-08-16T01:24:18;5.10;;;3.65;;
1106;SDS011;540;49.448;8.612;2022-08-16T01:27:11;6.15;;;3.50;;
1106;SDS011;540;49.448;8.612;2022-08-16T01:29:47;5.18;;;4.07;;
1106;SDS011;540;49.448;8.612;2022-08-16T01:32:24;3.90;;;3.50;;
1106;SDS011;540;49.448;8.612;2022-08-16T01:34:59;5.75;;;3.28;;
1106;SDS011;540;49.448;8.612;2022-08-16T01:37:26;4.40;;;3.53;;
1106;SDS011;540;49.448;8.612;2022-08-16T01:40:02;6.18;;;3.40;;
1106;SDS011;540;49.448;8.612;2022-08-16T01:42:32;5.65;;;3.92;;
1106;SDS011;540;49.448;8.612;2022-08-16T01:45:01;7.05;;;4.13;;
1106;SDS011;540;49.448;8.612;2022-08-16T01:47:29;5.10;;;3.58;;
1106;SDS011;540;49.448;8.612;2022-08-16T01:49:58;4.22;;;3.63;;
1106;SDS011;540;49.448;8.612;2022-08-16T01:52:46;5.53;;;3.92;;
1106;SDS011;540;49.448;8.612;2022-08-16T01:55:17;5.45;;;4.40;;
1106;SDS011;540;49.448;8.612;2022-08-16T01:57:48;6.80;;;3.65;;
1106;SDS011;540;49.448;8.612;2022-08-16T02:00:21;8.85;;;3.50;;
1106;SDS011;540;49.448;8.612;2022-08-16T02:02:55;3.90;;;3.50;;
1106;SDS011;540;49.448;8.612;2022-08-16T02:05:22;4.97;;;3.85;;
1106;SDS011;540;49.448;8.612;2022-08-16T02:07:56;7.10;;;4.07;;
1106;SDS011;540;49.448;8.612;2022-08-16T02:10:25;7.63;;;3.65;;
1106;SDS011;540;49.448;8.612;2022-08-16T02:12:54;5.70;;;3.70;;
1106;SDS011;540;49.448;8.612;2022-08-16T02:15:27;7.15;;;3.50;;
1106;SDS011;540;49.448;8.612;2022-08-16T02:18:05;5.13;;;3.83;;
1106;SDS011;540;49.448;8.612;2022-08-16T02:20:38;4.78;;;4.07;;
1106;SDS011;540;49.448;8.612;2022-08-16T02:23:10;5.68;;;4.22;;
1106;SDS011;540;49.448;8.612;2022-08-16T02:25:44;5.85;;;3.67;;
1106;SDS011;540;49.448;8.612;2022-08-16T02:28:18;6.82;;;4.05;;
1106;SDS011;540;49.448;8.612;2022-08-16T02:30:49;9.80;;;3.90;;
1106;SDS011;540;49.448;8.612;2022-08-16T02:33:17;6.65;;;4.60;;
1106;SDS011;540;49.448;8.612;2022-08-16T02:36:06;7.38;;;4.30;;
1106;SDS011;540;49.448;8.612;2022-08-16T02:38:39;5.78;;;4.30;;
1106;SDS011;540;49.448;8.612;2022-08-16T02:41:09;6.78;;;4.40;;
1106;SDS011;540;49.448;8.612;2022-08-16T02:43:37;6.18;;;4.30;;
1106;SDS011;540;49.448;8.612;2022-08-16T02:46:06;7.35;;;4.80;;
1106;SDS011;540;49.448;8.612;2022-08-16T02:48:35;10.38;;;5.28;;
1106;SDS011;540;49.448;8.612;2022-08-16T02:51:14;9.90;;;4.68;;
1106;SDS011;540;49.448;8.612;2022-08-16T02:53:44;6.85;;;4.40;;
1106;SDS011;540;49.448;8.612;2022-08-16T02:56:15;7.22;;;4.50;;
1106;SDS011;540;49.448;8.612;2022-08-16T02:58:45;8.20;;;3.90;;
1106;SDS011;540;49.448;8.612;2022-08-16T03:01:15;5.78;;;4.55;;
1106;SDS011;540;49.448;8.612;2022-08-16T03:03:59;8.23;;;5.20;;
1106;SDS011;540;49.448;8.612;2022-08-16T03:06:49;7.03;;;4.60;;
1106;SDS011;540;49.448;8.612;2022-08-16T03:09:22;6.65;;;4.00;;
1106;SDS011;540;49.448;8.612;2022-08-16T03:11:59;7.32;;;4.80;;
1106;SDS011;540;49.448;8.612;2022-08-16T03:14:27;6.45;;;4.25;;
1106;SDS011;540;49.448;8.612;2022-08-16T03:16:55;7.97;;;5.05;;
1106;SDS011;540;49.448;8.612;2022-08-16T03:19:26;6.85;;;4.65;;
1106;SDS011;540;49.448;8.612;2022-08-16T03:22:12;5.57;;;4.80;;
1106;SDS011;540;49.448;8.612;2022-08-16T03:24:54;6.82;;;5.25;;
1106;SDS011;540;49.448;8.612;2022-08-16T03:27:27;7.32;;;5.00;;
1106;SDS011;540;49.448;8.612;2022-08-16T03:29:58;5.55;;;4.95;;
1106;SDS011;540;49.448;8.612;2022-08-16T03:32:42;6.78;;;4.95;;
1106;SDS011;540;49.448;8.612;2022-08-16T03:35:12;9.40;;;5.13;;
1106;SDS011;540;49.448;8.612;2022-08-16T03:37:43;8.82;;;6.38;;
1106;SDS011;540;49.448;8.612;2022-08-16T03:40:28;12.40;;;5.50;;
1106;SDS011;540;49.448;8.612;2022-08-16T03:43:00;5.80;;;4.45;;
1106;SDS011;540;49.448;8.612;2022-08-16T03:45:46;9.73;;;4.88;;
1106;SDS011;540;49.448;8.612;2022-08-16T03:48:18;6.90;;;5.00;;
1106;SDS011;540;49.448;8.612;2022-08-16T03:53:33;5.30;;;4.18;;
1106;SDS011;540;49.448;8.612;2022-08-16T03:56:03;8.38;;;4.28;;
1106;SDS011;540;49.448;8.612;2022-08-16T03:58:33;6.82;;;5.07;;
1106;SDS011;540;49.448;8.612;2022-08-16T04:01:02;9.70;;;4.57;;
1106;SDS011;540;49.448;8.612;2022-08-16T04:03:31;8.23;;;4.55;;
1106;SDS011;540;49.448;8.612;2022-08-16T04:06:01;6.82;;;4.82;;
1106;SDS011;540;49.448;8.612;2022-08-16T04:08:29;5.15;;;4.18;;
1106;SDS011;540;49.448;8.612;2022-08-16T04:10:59;9.88;;;4.18;;
1106;SDS011;540;49.448;8.612;2022-08-16T04:13:29;5.65;;;4.00;;
1106;SDS011;540;49.448;8.612;2022-08-16T04:16:19;7.55;;;4.38;;
1106;SDS011;540;49.448;8.612;2022-08-16T04:21:29;5.03;;;4.47;;
1106;SDS011;540;49.448;8.612;2022-08-16T04:23:57;6.82;;;4.90;;
1106;SDS011;540;49.448;8.612;2022-08-16T04:26:26;6.60;;;5.07;;
1106;SDS011;540;49.448;8.612;2022-08-16T04:28:57;10.20;;;5.32;;
1106;SDS011;540;49.448;8.612;2022-08-16T04:31:47;7.78;;;5.30;;
1106;SDS011;540;49.448;8.612;2022-08-16T04:34:22;7.68;;;5.78;;
1106;SDS011;540;49.448;8.612;2022-08-16T04:36:51;5.53;;;4.80;;
1106;SDS011;540;49.448;8.612;2022-08-16T04:39:19;8.18;;;4.97;;
1106;SDS011;540;49.448;8.612;2022-08-16T04:41:49;5.47;;;4.18;;
1106;SDS011;540;49.448;8.612;2022-08-16T04:44:22;5.55;;;4.45;;
1106;SDS011;540;49.448;8.612;2022-08-16T04:47:12;9.35;;;5.25;;
1106;SDS011;540;49.448;8.612;2022-08-16T04:49:49;9.80;;;5.82;;
1106;SDS011;540;49.448;8.612;2022-08-16T04:52:18;9.68;;;5.10;;
1106;SDS011;540;49.448;8.612;2022-08-16T04:55:00;5.93;;;4.15;;
1106;SDS011;540;49.448;8.612;2022-08-16T04:57:29;6.55;;;4.55;;
1106;SDS011;540;49.448;8.612;2022-08-16T04:59:57;8.77;;;5.32;;
1106;SDS011;540;49.448;8.612;2022-08-16T05:02:47;9.88;;;5.10;;
1106;SDS011;540;49.448;8.612;2022-08-16T05:05:21;6.20;;;4.95;;
1106;SDS011;540;49.448;8.612;2022-08-16T05:07:49;9.23;;;5.53;;
1106;SDS011;540;49.448;8.612;2022-08-16T05:10:25;9.55;;;4.95;;
1106;SDS011;540;49.448;8.612;2022-08-16T05:12:55;6.43;;;5.80;;
1106;SDS011;540;49.448;8.612;2022-08-16T05:15:24;9.65;;;5.53;;
1106;SDS011;540;49.448;8.612;2022-08-16T05:17:54;6.18;;;5.40;;
1106;SDS011;540;49.448;8.612;2022-08-16T05:20:24;9.18;;;5.20;;
1106;SDS011;540;49.448;8.612;2022-08-16T05:23:11;6.15;;;5.50;;
1106;SDS011;540;49.448;8.612;2022-08-16T05:25:40;7.75;;;5.60;;
1106;SDS011;540;49.448;8.612;2022-08-16T05:28:14;7.43;;;5.88;;
1106;SDS011;540;49.448;8.612;2022-08-16T05:30:42;7.70;;;5.80;;
1106;SDS011;540;49.448;8.612;2022-08-16T05:33:11;9.98;;;5.85;;
1106;SDS011;540;49.448;8.612;2022-08-16T05:35:45;6.60;;;5.35;;
1106;SDS011;540;49.448;8.612;2022-08-16T05:38:20;6.22;;;4.95;;
1106;SDS011;540;49.448;8.612;2022-08-16T05:41:04;8.35;;;5.68;;
1106;SDS011;540;49.448;8.612;2022-08-16T05:43:34;9.63;;;5.20;;
1106;SDS011;540;49.448;8.612;2022-08-16T05:46:12;12.00;;;5.88;;
1106;SDS011;540;49.448;8.612;2022-08-16T05:48:57;9.63;;;5.65;;
1106;SDS011;540;49.448;8.612;2022-08-16T05:51:34;8.00;;;5.63;;
1106;SDS011;540;49.448;8.612;2022-08-16T05:54:06;8.93;;;5.88;;
1106;SDS011;540;49.448;8.612;2022-08-16T05:56:36;9.07;;;5.78;;
1106;SDS011;540;49.448;8.612;2022-08-16T05:59:05;9.10;;;5.30;;
1106;SDS011;540;49.448;8.612;2022-08-16T06:01:34;8.95;;;5.97;;
1106;SDS011;540;49.448;8.612;2022-08-16T06:04:05;7.85;;;5.60;;
1106;SDS011;540;49.448;8.612;2022-08-16T06:06:54;6.68;;;4.93;;
1106;SDS011;540;49.448;8.612;2022-08-16T06:09:23;6.45;;;4.50;;
1106;SDS011;540;49.448;8.612;2022-08-16T06:12:09;6.00;;;4.80;;
1106;SDS011;540;49.448;8.612;2022-08-16T06:14:52;6.53;;;5.32;;
1106;SDS011;540;49.448;8.612;2022-08-16T06:17:23;8.73;;;5.75;;
1106;SDS011;540;49.448;8.612;2022-08-16T06:20:10;6.10;;;5.05;;
1106;SDS011;540;49.448;8.612;2022-08-16T06:22:43;10.18;;;5.32;;
1106;SDS011;540;49.448;8.612;2022-08-16T06:25:13;8.73;;;5.80;;
1106;SDS011;540;49.448;8.612;2022-08-16T06:27:41;8.85;;;6.20;;
1106;SDS011;540;49.448;8.612;2022-08-16T06:30:22;8.35;;;5.43;;
1106;SDS011;540;49.448;8.612;2022-08-16T06:32:54;8.52;;;5.72;;
1106;SDS011;540;49.448;8.612;2022-08-16T06:35:23;9.43;;;5.32;;
1106;SDS011;540;49.448;8.612;2022-08-16T06:38:05;9.57;;;5.70;;
1106;SDS011;540;49.448;8.612;2022-08-16T06:40:53;8.02;;;6.18;;
1106;SDS011;540;49.448;8.612;2022-08-16T06:43:21;8.60;;;5.35;;
1106;SDS011;540;49.448;8.612;2022-08-16T06:45:53;9.02;;;5.05;;
1106;SDS011;540;49.448;8.612;2022-08-16T06:48:21;7.43;;;5.25;;
1106;SDS011;540;49.448;8.612;2022-08-16T06:51:00;9.70;;;5.63;;
1106;SDS011;540;49.448;8.612;2022-08-16T06:53:29;6.95;;;5.80;;
1106;SDS011;540;49.448;8.612;2022-08-16T06:56:01;7.40;;;5.55;;
1106;SDS011;540;49.448;8.612;2022-08-16T06:58:43;8.18;;;5.90;;
1106;SDS011;540;49.448;8.612;2022-08-16T07:01:11;8.63;;;5.90;;
1106;SDS011;540;49.448;8.612;2022-08-16T07:03:41;6.15;;;5.13;;
1106;SDS011;540;49.448;8.612;2022-08-16T07:06:23;7.53;;;5.65;;
1106;SDS011;540;49.448;8.612;2022-08-16T07:08:52;12.25;;;9.13;;
1106;SDS011;540;49.448;8.612;2022-08-16T07:11:21;9.20;;;6.50;;
1106;SDS011;540;49.448;8.612;2022-08-16T07:14:10;6.55;;;5.75;;
1106;SDS011;540;49.448;8.612;2022-08-16T07:16:51;10.77;;;6.10;;
1106;SDS011;540;49.448;8.612;2022-08-16T07:19:23;8.95;;;5.82;;
1106;SDS011;540;49.448;8.612;2022-08-16T07:22:12;9.25;;;6.20;;
1106;SDS011;540;49.448;8.612;2022-08-16T07:25:00;8.35;;;5.20;;
1106;SDS011;540;49.448;8.612;2022-08-16T07:27:28;10.35;;;5.40;;
1106;SDS011;540;49.448;8.612;2022-08-16T07:29:59;7.43;;;5.80;;
1106;SDS011;540;49.448;8.612;2022-08-16T07:32:29;9.15;;;6.10;;
1106;SDS011;540;49.448;8.612;2022-08-16T07:35:00;8.25;;;5.72;;
1106;SDS011;540;49.448;8.612;2022-08-16T07:37:29;7.25;;;5.60;;
1106;SDS011;540;49.448;8.612;2022-08-16T07:39:57;5.95;;;5.05;;
1106;SDS011;540;49.448;8.612;2022-08-16T07:42:25;10.13;;;5.53;;
1106;SDS011;540;49.448;8.612;2022-08-16T07:45:13;5.90;;;5.07;;
1106;SDS011;540;49.448;8.612;2022-08-16T07:47:42;7.85;;;5.68;;
1106;SDS011;540;49.448;8.612;2022-08-16T07:50:16;5.78;;;4.55;;
1106;SDS011;540;49.448;8.612;2022-08-16T07:53:06;9.02;;;5.38;;
1106;SDS011;540;49.448;8.612;2022-08-16T07:55:36;10.90;;;5.07;;
1106;SDS011;540;49.448;8.612;2022-08-16T07:58:13;6.47;;;4.93;;
1106;SDS011;540;49.448;8.612;2022-08-16T08:00:58;7.20;;;5.22;;
1106;SDS011;540;49.448;8.612;2022-08-16T08:03:36;4.80;;;4.30;;
1106;SDS011;540;49.448;8.612;2022-08-16T08:06:10;4.75;;;3.88;;
1106;SDS011;540;49.448;8.612;2022-08-16T08:08:41;6.65;;;4.22;;
1106;SDS011;540;49.448;8.612;2022-08-16T08:11:18;8.35;;;4.10;;
1106;SDS011;540;49.448;8.612;2022-08-16T08:13:46;6.15;;;4.60;;
1106;SDS011;540;49.448;8.612;2022-08-16T08:16:16;8.52;;;4.10;;
1106;SDS011;540;49.448;8.612;2022-08-16T08:18:46;6.25;;;4.38;;
1106;SDS011;540;49.448;8.612;2022-08-16T08:21:22;8.68;;;4.25;;
1106;SDS011;540;49.448;8.612;2022-08-16T08:23:54;5.53;;;4.20;;
1106;SDS011;540;49.448;8.612;2022-08-16T08:26:22;7.38;;;3.80;;
1106;SDS011;540;49.448;8.612;2022-08-16T08:28:51;9.13;;;4.53;;
1106;SDS011;540;49.448;8.612;2022-08-16T08:31:26;7.30;;;4.03;;
1106;SDS011;540;49.448;8.612;2022-08-16T08:33:54;5.47;;;4.55;;
1106;SDS011;540;49.448;8.612;2022-08-16T08:36:24;5.18;;;4.03;;
1106;SDS011;540;49.448;8.612;2022-08-16T08:39:01;8.20;;;4.30;;
1106;SDS011;540;49.448;8.612;2022-08-16T08:41:39;6.43;;;4.53;;
1106;SDS011;540;49.448;8.612;2022-08-16T08:44:07;4.60;;;3.92;;
1106;SDS011;540;49.448;8.612;2022-08-16T08:46:55;10.35;;;4.10;;
1106;SDS011;540;49.448;8.612;2022-08-16T08:49:26;4.53;;;3.95;;
1106;SDS011;540;49.448;8.612;2022-08-16T08:52:14;8.68;;;4.20;;
1106;SDS011;540;49.448;8.612;2022-08-16T08:55:02;5.50;;;4.45;;
1106;SDS011;540;49.448;8.612;2022-08-16T08:57:36;4.85;;;4.38;;
1106;SDS011;540;49.448;8.612;2022-08-16T09:00:06;7.65;;;4.70;;
1106;SDS011;540;49.448;8.612;2022-08-16T09:02:39;5.07;;;4.57;;
1106;SDS011;540;49.448;8.612;2022-08-16T09:05:07;10.00;;;4.43;;
1106;SDS011;540;49.448;8.612;2022-08-16T09:07:41;8.85;;;5.47;;
1106;SDS011;540;49.448;8.612;2022-08-16T09:10:27;5.55;;;5.05;;
1106;SDS011;540;49.448;8.612;2022-08-16T09:12:55;5.35;;;4.45;;
1106;SDS011;540;49.448;8.612;2022-08-16T09:15:23;12.18;;;4.72;;
1106;SDS011;540;49.448;8.612;2022-08-16T09:17:57;7.57;;;4.43;;
1106;SDS011;540;49.448;8.612;2022-08-16T09:20:27;6.72;;;5.00;;
1106;SDS011;540;49.448;8.612;2022-08-16T09:22:57;5.53;;;5.03;;
1106;SDS011;540;49.448;8.612;2022-08-16T09:25:29;5.85;;;4.72;;
1106;SDS011;540;49.448;8.612;2022-08-16T09:28:00;5.82;;;4.70;;
1106;SDS011;540;49.448;8.612;2022-08-16T09:30:35;6.60;;;4.93;;
1106;SDS011;540;49.448;8.612;2022-08-16T09:33:10;5.05;;;4.63;;
1106;SDS011;540;49.448;8.612;2022-08-16T09:35:43;7.18;;;4.30;;
1106;SDS011;540;49.448;8.612;2022-08-16T09:38:19;5.90;;;4.43;;
1106;SDS011;540;49.448;8.612;2022-08-16T09:40:59;10.20;;;5.28;;
1106;SDS011;540;49.448;8.612;2022-08-16T09:43:28;7.97;;;4.57;;
1106;SDS011;540;49.448;8.612;2022-08-16T09:46:16;7.68;;;4.60;;
1106;SDS011;540;49.448;8.612;2022-08-16T09:49:04;9.25;;;4.40;;
1106;SDS011;540;49.448;8.612;2022-08-16T09:51:33;6.28;;;4.30;;
1106;SDS011;540;49.448;8.612;2022-08-16T09:54:03;4.53;;;3.60;;
1106;SDS011;540;49.448;8.612;2022-08-16T09:56:37;6.75;;;4.10;;
1106;SDS011;540;49.448;8.612;2022-08-16T09:59:19;4.78;;;4.20;;
1106;SDS011;540;49.448;8.612;2022-08-16T10:01:48;6.07;;;3.72;;
1106;SDS011;540;49.448;8.612;2022-08-16T10:04:17;7.35;;;4.20;;
1106;SDS011;540;49.448;8.612;2022-08-16T10:06:58;5.60;;;4.22;;
1106;SDS011;540;49.448;8.612;2022-08-16T10:09:31;5.80;;;3.97;;
1106;SDS011;540;49.448;8.612;2022-08-16T10:12:20;4.53;;;4.13;;
1106;SDS011;540;49.448;8.612;2022-08-16T10:15:08;5.78;;;4.00;;
1106;SDS011;540;49.448;8.612;2022-08-16T10:17:41;4.68;;;3.55;;
1106;SDS011;540;49.448;8.612;2022-08-16T10:20:25;5.28;;;3.97;;
1106;SDS011;540;49.448;8.612;2022-08-16T10:22:54;5.80;;;3.97;;
1106;SDS011;540;49.448;8.612;2022-08-16T10:25:31;5.88;;;4.10;;
1106;SDS011;540;49.448;8.612;2022-08-16T10:28:21;5.90;;;4.25;;
1106;SDS011;540;49.448;8.612;2022-08-16T10:30:55;5.35;;;4.28;;
1106;SDS011;540;49.448;8.612;2022-08-16T10:33:24;5.88;;;4.45;;
1106;SDS011;540;49.448;8.612;2022-08-16T10:35:59;6.72;;;4.13;;
1106;SDS011;540;49.448;8.612;2022-08-16T10:38:29;7.20;;;4.03;;
1106;SDS011;540;49.448;8.612;2022-08-16T10:40:58;5.10;;;3.80;;
1106;SDS011;540;49.448;8.612;2022-08-16T10:43:28;4.90;;;3.70;;
1106;SDS011;540;49.448;8.612;2022-08-16T10:45:57;4.57;;;3.60;;
1106;SDS011;540;49.448;8.612;2022-08-16T10:48:26;5.50;;;4.18;;
1106;SDS011;540;49.448;8.612;2022-08-16T10:50:56;4.22;;;3.78;;
1106;SDS011;540;49.448;8.612;2022-08-16T10:53:25;6.55;;;4.28;;
1106;SDS011;540;49.448;8.612;2022-08-16T10:55:59;5.05;;;3.88;;
1106;SDS011;540;49.448;8.612;2022-08-16T10:58:31;6.22;;;3.88;;
1106;SDS011;540;49.448;8.612;2022-08-16T11:01:00;4.47;;;4.05;;
1106;SDS011;540;49.448;8.612;2022-08-16T11:03:48;4.95;;;3.72;;
1106;SDS011;540;49.448;8.612;2022-08-16T11:06:22;4.50;;;4.10;;
1106;SDS011;540;49.448;8.612;2022-08-16T11:08:54;6.88;;;3.83;;
1106;SDS011;540;49.448;8.612;2022-08-16T11:11:43;6.28;;;4.18;;
1106;SDS011;540;49.448;8.612;2022-08-16T11:14:32;5.55;;;4.28;;
1106;SDS011;540;49.448;8.612;2022-08-16T11:17:03;5.63;;;4.03;;
1106;SDS011;540;49.448;8.612;2022-08-16T11:19:36;5.95;;;4.20;;
1106;SDS011;540;49.448;8.612;2022-08-16T11:22:25;4.20;;;3.80;;
1106;SDS011;540;49.448;8.612;2022-08-16T11:25:14;4.38;;;3.97;;
1106;SDS011;540;49.448;8.612;2022-08-16T11:28:04;5.80;;;3.67;;
1106;SDS011;540;49.448;8.612;2022-08-16T11:30:35;7.20;;;3.92;;
1106;SDS011;540;49.448;8.612;2022-08-16T11:33:04;5.95;;;3.33;;
1106;SDS011;540;49.448;8.612;2022-08-16T11:35:32;6.35;;;4.28;;
1106;SDS011;540;49.448;8.612;2022-08-16T11:38:21;6.30;;;4.35;;
1106;SDS011;540;49.448;8.612;2022-08-16T11:41:09;3.65;;;3.22;;
1106;SDS011;540;49.448;8.612;2022-08-16T11:43:38;4.57;;;3.53;;
1106;SDS011;540;49.448;8.612;2022-08-16T11:46:09;5.30;;;3.58;;
1106;SDS011;540;49.448;8.612;2022-08-16T11:48:59;4.68;;;3.55;;
1106;SDS011;540;49.448;8.612;2022-08-16T11:51:27;4.60;;;4.00;;
1106;SDS011;540;49.448;8.612;2022-08-16T11:53:55;4.38;;;3.97;;
1106;SDS011;540;49.448;8.612;2022-08-16T11:56:23;6.05;;;3.88;;
1106;SDS011;540;49.448;8.612;2022-08-16T11:59:11;7.10;;;4.50;;
1106;SDS011;540;49.448;8.612;2022-08-16T12:01:42;3.85;;;3.53;;
1106;SDS011;540;49.448;8.612;2022-08-16T12:04:25;3.90;;;3.50;;
1106;SDS011;540;49.448;8.612;2022-08-16T12:06:53;5.75;;;4.00;;
1106;SDS011;540;49.448;8.612;2022-08-16T12:09:21;3.88;;;3.28;;
1106;SDS011;540;49.448;8.612;2022-08-16T12:11:50;4.40;;;3.42;;
1106;SDS011;540;49.448;8.612;2022-08-16T12:14:18;5.07;;;2.70;;
1106;SDS011;540;49.448;8.612;2022-08-16T12:16:49;3.75;;;2.97;;
1106;SDS011;540;49.448;8.612;2022-08-16T12:19:22;4.20;;;3.35;;
1106;SDS011;540;49.448;8.612;2022-08-16T12:21:59;5.20;;;3.00;;
1106;SDS011;540;49.448;8.612;2022-08-16T12:24:43;3.60;;;3.22;;
1106;SDS011;540;49.448;8.612;2022-08-16T12:27:17;4.15;;;2.95;;
1106;SDS011;540;49.448;8.612;2022-08-16T12:29:50;3.25;;;2.97;;
1106;SDS011;540;49.448;8.612;2022-08-16T12:32:20;5.07;;;3.47;;
1106;SDS011;540;49.448;8.612;2022-08-16T12:35:05;4.40;;;3.20;;
1106;SDS011;540;49.448;8.612;2022-08-16T12:37:34;3.55;;;3.25;;
1106;SDS011;540;49.448;8.612;2022-08-16T12:40:04;3.40;;;3.10;;
1106;SDS011;540;49.448;8.612;2022-08-16T12:42:51;5.25;;;3.03;;
1106;SDS011;540;49.448;8.612;2022-08-16T12:45:24;4.25;;;3.10;;
1106;SDS011;540;49.448;8.612;2022-08-16T12:47:55;4.97;;;3.20;;
1106;SDS011;540;49.448;8.612;2022-08-16T12:51:00;3.58;;;3.28;;
1106;SDS011;540;49.448;8.612;2022-08-16T12:53:28;4.53;;;3.40;;
1106;SDS011;540;49.448;8.612;2022-08-16T12:55:59;3.20;;;2.90;;
1106;SDS011;540;49.448;8.612;2022-08-16T12:58:29;4.82;;;3.13;;
1106;SDS011;540;49.448;8.612;2022-08-16T13:01:16;5.15;;;2.60;;
1106;SDS011;540;49.448;8.612;2022-08-16T13:03:49;4.63;;;3.30;;
1106;SDS011;540;49.448;8.612;2022-08-16T13:06:37;5.68;;;2.97;;
1106;SDS011;540;49.448;8.612;2022-08-16T13:09:06;2.65;;;2.40;;
1106;SDS011;540;49.448;8.612;2022-08-16T13:11:47;3.78;;;2.65;;
1106;SDS011;540;49.448;8.612;2022-08-16T13:14:26;3.28;;;2.90;;
1106;SDS011;540;49.448;8.612;2022-08-16T13:17:00;3.53;;;2.80;;
1106;SDS011;540;49.448;8.612;2022-08-16T13:19:33;5.10;;;3.00;;
1106;SDS011;540;49.448;8.612;2022-08-16T13:22:22;5.68;;;3.35;;
1106;SDS011;540;49.448;8.612;2022-08-16T13:24:51;3.78;;;2.53;;
1106;SDS011;540;49.448;8.612;2022-08-16T13:27:19;4.10;;;2.58;;
1106;SDS011;540;49.448;8.612;2022-08-16T13:30:08;5.47;;;2.53;;
1106;SDS011;540;49.448;8.612;2022-08-16T13:32:57;3.22;;;2.80;;
1106;SDS011;540;49.448;8.612;2022-08-16T13:35:27;7.10;;;2.60;;
1106;SDS011;540;49.448;8.612;2022-08-16T13:38:00;6.00;;;3.07;;
1106;SDS011;540;49.448;8.612;2022-08-16T13:40:28;6.22;;;2.60;;
1106;SDS011;540;49.448;8.612;2022-08-16T13:42:57;2.67;;;2.45;;
1106;SDS011;540;49.448;8.612;2022-08-16T13:45:25;6.18;;;2.78;;
1106;SDS011;540;49.448;8.612;2022-08-16T13:47:58;3.88;;;3.13;;
1106;SDS011;540;49.448;8.612;2022-08-16T13:50:30;5.50;;;2.75;;
1106;SDS011;540;49.448;8.612;2022-08-16T13:53:17;4.60;;;3.42;;
1106;SDS011;540;49.448;8.612;2022-08-16T13:55:50;3.85;;;2.97;;
1106;SDS011;540;49.448;8.612;2022-08-16T13:58:24;3.80;;;2.90;;
1106;SDS011;540;49.448;8.612;2022-08-16T14:01:03;4.10;;;2.67;;
1106;SDS011;540;49.448;8.612;2022-08-16T14:03:35;2.88;;;2.60;;
1106;SDS011;540;49.448;8.612;2022-08-16T14:06:06;4.32;;;2.38;;
1106;SDS011;540;49.448;8.612;2022-08-16T14:08:36;4.18;;;2.60;;
1106;SDS011;540;49.448;8.612;2022-08-16T14:11:07;4.30;;;2.40;;
1106;SDS011;540;49.448;8.612;2022-08-16T14:13:37;3.33;;;2.75;;
1106;SDS011;540;49.448;8.612;2022-08-16T14:16:06;5.25;;;3.28;;
1106;SDS011;540;49.448;8.612;2022-08-16T14:18:49;3.05;;;2.50;;
1106;SDS011;540;49.448;8.612;2022-08-16T14:21:19;7.55;;;2.70;;
1106;SDS011;540;49.448;8.612;2022-08-16T14:23:49;3.22;;;2.80;;
1106;SDS011;540;49.448;8.612;2022-08-16T14:26:17;3.83;;;2.20;;
1106;SDS011;540;49.448;8.612;2022-08-16T14:28:46;6.57;;;2.50;;
1106;SDS011;540;49.448;8.612;2022-08-16T14:31:15;4.47;;;2.60;;
1106;SDS011;540;49.448;8.612;2022-08-16T14:33:45;2.65;;;2.30;;
1106;SDS011;540;49.448;8.612;2022-08-16T14:36:12;2.45;;;2.25;;
1106;SDS011;540;49.448;8.612;2022-08-16T14:38:56;3.45;;;2.53;;
1106;SDS011;540;49.448;8.612;2022-08-16T14:41:24;3.33;;;2.63;;
1106;SDS011;540;49.448;8.612;2022-08-16T14:43:53;3.63;;;2.28;;
1106;SDS011;540;49.448;8.612;2022-08-16T14:46:21;5.68;;;2.50;;
1106;SDS011;540;49.448;8.612;2022-08-16T14:48:49;2.70;;;2.50;;
1106;SDS011;540;49.448;8.612;2022-08-16T14:51:18;4.32;;;2.47;;
1106;SDS011;540;49.448;8.612;2022-08-16T14:53:51;4.93;;;2.22;;
1106;SDS011;540;49.448;8.612;2022-08-16T14:56:20;3.35;;;2.88;;
1106;SDS011;540;49.448;8.612;2022-08-16T14:59:08;5.18;;;2.78;;
1106;SDS011;540;49.448;8.612;2022-08-16T15:01:36;3.78;;;2.83;;
1106;SDS011;540;49.448;8.612;2022-08-16T15:04:23;5.35;;;2.60;;
1106;SDS011;540;49.448;8.612;2022-08-16T15:07:05;7.68;;;2.60;;
1106;SDS011;540;49.448;8.612;2022-08-16T15:09:38;3.28;;;2.53;;
1106;SDS011;540;49.448;8.612;2022-08-16T15:12:27;3.83;;;2.78;;
1106;SDS011;540;49.448;8.612;2022-08-16T15:15:01;3.40;;;2.40;;
1106;SDS011;540;49.448;8.612;2022-08-16T15:17:42;3.58;;;2.40;;
1106;SDS011;540;49.448;8.612;2022-08-16T15:20:22;3.58;;;2.60;;
1106;SDS011;540;49.448;8.612;2022-08-16T15:22:52;2.50;;;2.28;;
1106;SDS011;540;49.448;8.612;2022-08-16T15:25:21;2.63;;;2.42;;
1106;SDS011;540;49.448;8.612;2022-08-16T15:27:56;4.07;;;2.87;;
1106;SDS011;540;49.448;8.612;2022-08-16T15:30:27;2.53;;;2.25;;
1106;SDS011;540;49.448;8.612;2022-08-16T15:33:16;3.20;;;2.50;;
1106;SDS011;540;49.448;8.612;2022-08-16T15:35:47;6.53;;;2.70;;
1106;SDS011;540;49.448;8.612;2022-08-16T15:38:17;3.13;;;2.55;;
1106;SDS011;540;49.448;8.612;2022-08-16T15:41:06;3.83;;;2.50;;
1106;SDS011;540;49.448;8.612;2022-08-16T15:43:39;3.90;;;2.80;;
1106;SDS011;540;49.448;8.612;2022-08-16T15:46:09;3.60;;;2.75;;
1106;SDS011;540;49.448;8.612;2022-08-16T15:49:10;3.45;;;2.80;;
1106;SDS011;540;49.448;8.612;2022-08-16T15:51:38;4.68;;;3.05;;
1106;SDS011;540;49.448;8.612;2022-08-16T15:54:10;5.50;;;3.00;;
1106;SDS011;540;49.448;8.612;2022-08-16T15:59:38;3.28;;;2.80;;
1106;SDS011;540;49.448;8.612;2022-08-16T16:02:15;5.10;;;3.08;;
1106;SDS011;540;49.448;8.612;2022-08-16T16:04:56;3.03;;;2.72;;
1106;SDS011;540;49.448;8.612;2022-08-16T16:07:27;3.63;;;3.25;;
1106;SDS011;540;49.448;8.612;2022-08-16T16:09:56;5.40;;;2.70;;
1106;SDS011;540;49.448;8.612;2022-08-16T16:12:25;7.28;;;3.03;;
1106;SDS011;540;49.448;8.612;2022-08-16T16:15:16;2.95;;;2.65;;
1106;SDS011;540;49.448;8.612;2022-08-16T16:17:47;5.72;;;3.03;;
1106;SDS011;540;49.448;8.612;2022-08-16T16:20:17;5.55;;;2.95;;
1106;SDS011;540;49.448;8.612;2022-08-16T16:22:46;3.45;;;3.00;;
1106;SDS011;540;49.448;8.612;2022-08-16T16:25:15;5.05;;;2.55;;